sensor_id;sensor_type;location;lat;lon;timestamp;pressure;altitude;pressure_sealevel;temperature;humidity
2397;BME280;1209;48.410;9.054;2023-06-10T00:01:18;95847.97;;;17.56;100.00
2397;BME280;1209;48.410;9.054;2023-06-10T00:03:43;95845.59;;;17.24;100.00
2397;BME280;1209;48.410;9.054;2023-06-10T00:06:08;95841.75;;;17.62;100.00
2397;BME280;1209;48.410;9.054;2023-06-10T00:08:34;95850.06;;;17.77;100.00
2397;BME280;1209;48.410;9.054;2023-06-10T00:10:59;95845.34;;;17.79;100.00
2397;BME280;1209;48.410;9.054;2023-06-10T00:13:25;95849.72;;;17.85;100.00
2397;BME280;1209;48.410;9.054;2023-06-10T00:15:50;95848.78;;;17.91;100.00
2397;BME280;1209;48.410;9.054;2023-06-10T00:18:16;95848.56;;;17.93;100.00
2397;BME280;1209;48.410;9.054;2023-06-10T00:20:42;95855.25;;;18.07;100.00
2397;BME280;1209;48.410;9.054;2023-06-10T00:23:07;95849.59;;;18.15;100.00
2397;BME280;1209;48.410;9.054;2023-06-10T00:25:34;95841.44;;;18.17;100.00
2397;BME280;1209;48.410;9.054;2023-06-10T00:27:59;95850.53;;;18.09;100.00
2397;BME280;1209;48.410;9.054;2023-06-10T00:30:25;95838.34;;;18.08;100.00
2397;BME280;1209;48.410;9.054;2023-06-10T00:32:50;95841.22;;;18.07;100.00
2397;BME280;1209;48.410;9.054;2023-06-10T00:35:15;95837.78;;;18.06;100.00
2397;BME280;1209;48.410;9.054;2023-06-10T00:37:41;95842.03;;;18.07;100.00
2397;BME280;1209;48.410;9.054;2023-06-10T00:40:06;95848.22;;;18.13;100.00
2397;BME280;1209;48.410;9.054;2023-06-10T00:42:34;95845.88;;;18.28;100.00
2397;BME280;1209;48.410;9.054;2023-06-10T00:44:59;95841.78;;;18.09;100.00
2397;BME280;1209;48.410;9.054;2023-06-10T00:47:25;95842.50;;;18.04;100.00
2397;BME280;1209;48.410;9.054;2023-06-10T00:49:51;95845.81;;;18.11;100.00
2397;BME280;1209;48.410;9.054;2023-06-10T00:52:18;95842.13;;;18.12;100.00
2397;BME280;1209;48.410;9.054;2023-06-10T00:54:45;95836.84;;;18.12;100.00
2397;BME280;1209;48.410;9.054;2023-06-10T00:57:12;95839.75;;;17.99;100.00
2397;BME280;1209;48.410;9.054;2023-06-10T00:59:38;95840.84;;;18.27;100.00
2397;BME280;1209;48.410;9.054;2023-06-10T01:02:04;95838.44;;;18.13;100.00
2397;BME280;1209;48.410;9.054;2023-06-10T01:04:30;95841.53;;;18.22;100.00
2397;BME280;1209;48.410;9.054;2023-06-10T01:09:45;95842.94;;;18.01;100.00
2397;BME280;1209;48.410;9.054;2023-06-10T01:12:29;95838.78;;;17.93;100.00
2397;BME280;1209;48.410;9.054;2023-06-10T01:14:56;95840.31;;;18.01;100.00
2397;BME280;1209;48.410;9.054;2023-06-10T01:17:21;95841.91;;;18.02;100.00
2397;BME280;1209;48.410;9.054;2023-06-10T01:19:54;95842.16;;;18.01;100.00
2397;BME280;1209;48.410;9.054;2023-06-10T01:22:21;95834.00;;;18.02;100.00
2397;BME280;1209;48.410;9.054;2023-06-10T01:24:47;95836.38;;;17.92;100.00
2397;BME280;1209;48.410;9.054;2023-06-10T01:27:15;95836.72;;;17.96;100.00
2397;BME280;1209;48.410;9.054;2023-06-10T01:29:46;95838.34;;;17.85;100.00
2397;BME280;1209;48.410;9.054;2023-06-10T01:32:23;95839.13;;;17.97;100.00
2397;BME280;1209;48.410;9.054;2023-06-10T01:34:51;95826.53;;;17.99;100.00
2397;BME280;1209;48.410;9.054;2023-06-10T01:37:19;95841.91;;;17.79;100.00
2397;BME280;1209;48.410;9.054;2023-06-10T01:39:48;95848.47;;;17.76;100.00
2397;BME280;1209;48.410;9.054;2023-06-10T01:42:15;95838.00;;;17.81;100.00
2397;BME280;1209;48.410;9.054;2023-06-10T01:44:40;95838.00;;;17.81;100.00
2397;BME280;1209;48.410;9.054;2023-06-10T01:47:07;95843.53;;;17.68;100.00
2397;BME280;1209;48.410;9.054;2023-06-10T01:49:32;95844.91;;;17.71;100.00
2397;BME280;1209;48.410;9.054;2023-06-10T01:51:57;95849.13;;;17.60;100.00
2397;BME280;1209;48.410;9.054;2023-06-10T01:54:23;95851.88;;;17.53;100.00
2397;BME280;1209;48.410;9.054;2023-06-10T01:56:48;95856.78;;;17.50;100.00
2397;BME280;1209;48.410;9.054;2023-06-10T01:59:13;95858.13;;;17.41;100.00
2397;BME280;1209;48.410;9.054;2023-06-10T02:01:38;95853.19;;;17.33;100.00
2397;BME280;1209;48.410;9.054;2023-06-10T02:04:04;95864.31;;;17.23;100.00
2397;BME280;1209;48.410;9.054;2023-06-10T02:06:29;95859.69;;;17.07;100.00
2397;BME280;1209;48.410;9.054;2023-06-10T02:08:55;95850.44;;;16.97;100.00
2397;BME280;1209;48.410;9.054;2023-06-10T02:11:20;95853.03;;;16.56;100.00
2397;BME280;1209;48.410;9.054;2023-06-10T02:13:45;95853.59;;;16.76;100.00
2397;BME280;1209;48.410;9.054;2023-06-10T02:16:10;95860.94;;;16.74;100.00
2397;BME280;1209;48.410;9.054;2023-06-10T02:18:37;95868.75;;;16.62;100.00
2397;BME280;1209;48.410;9.054;2023-06-10T02:21:03;95867.19;;;16.55;100.00
2397;BME280;1209;48.410;9.054;2023-06-10T02:23:28;95868.41;;;16.59;100.00
2397;BME280;1209;48.410;9.054;2023-06-10T02:25:53;95866.69;;;16.64;100.00
2397;BME280;1209;48.410;9.054;2023-06-10T02:28:19;95868.75;;;16.62;100.00
2397;BME280;1209;48.410;9.054;2023-06-10T02:30:44;95869.16;;;16.66;100.00
2397;BME280;1209;48.410;9.054;2023-06-10T02:33:11;95868.88;;;16.49;100.00
2397;BME280;1209;48.410;9.054;2023-06-10T02:35:40;95862.84;;;16.30;100.00
2397;BME280;1209;48.410;9.054;2023-06-10T02:38:05;95863.72;;;16.24;100.00
2397;BME280;1209;48.410;9.054;2023-06-10T02:40:31;95867.06;;;16.31;100.00
2397;BME280;1209;48.410;9.054;2023-06-10T02:42:56;95877.03;;;16.29;100.00
2397;BME280;1209;48.410;9.054;2023-06-10T02:45:22;95869.34;;;16.28;100.00
2397;BME280;1209;48.410;9.054;2023-06-10T02:47:47;95868.69;;;16.32;100.00
2397;BME280;1209;48.410;9.054;2023-06-10T02:50:13;95870.88;;;16.35;100.00
2397;BME280;1209;48.410;9.054;2023-06-10T02:52:38;95875.22;;;16.30;100.00
2397;BME280;1209;48.410;9.054;2023-06-10T02:55:04;95873.81;;;16.27;100.00
2397;BME280;1209;48.410;9.054;2023-06-10T02:57:29;95876.81;;;16.31;100.00
2397;BME280;1209;48.410;9.054;2023-06-10T02:59:54;95880.47;;;16.30;100.00
2397;BME280;1209;48.410;9.054;2023-06-10T03:02:20;95875.34;;;16.35;100.00
2397;BME280;1209;48.410;9.054;2023-06-10T03:04:45;95889.41;;;16.29;100.00
2397;BME280;1209;48.410;9.054;2023-06-10T03:07:10;95882.44;;;16.16;100.00
2397;BME280;1209;48.410;9.054;2023-06-10T03:09:36;95883.38;;;16.03;100.00
2397;BME280;1209;48.410;9.054;2023-06-10T03:12:01;95883.66;;;15.95;100.00
2397;BME280;1209;48.410;9.054;2023-06-10T03:14:27;95892.22;;;15.66;100.00
2397;BME280;1209;48.410;9.054;2023-06-10T03:16:52;95904.09;;;15.75;100.00
2397;BME280;1209;48.410;9.054;2023-06-10T03:19:18;95894.53;;;15.81;100.00
2397;BME280;1209;48.410;9.054;2023-06-10T03:21:44;95896.31;;;15.87;100.00
2397;BME280;1209;48.410;9.054;2023-06-10T03:24:10;95894.44;;;15.69;100.00
2397;BME280;1209;48.410;9.054;2023-06-10T03:26:36;95895.09;;;15.64;100.00
2397;BME280;1209;48.410;9.054;2023-06-10T03:29:01;95897.34;;;15.54;100.00
2397;BME280;1209;48.410;9.054;2023-06-10T03:31:26;95894.81;;;15.72;100.00
2397;BME280;1209;48.410;9.054;2023-06-10T03:33:51;95896.00;;;15.77;100.00
2397;BME280;1209;48.410;9.054;2023-06-10T03:36:17;95897.72;;;15.64;100.00
2397;BME280;1209;48.410;9.054;2023-06-10T03:38:42;95898.94;;;15.62;100.00
2397;BME280;1209;48.410;9.054;2023-06-10T03:41:07;95901.19;;;15.58;100.00
2397;BME280;1209;48.410;9.054;2023-06-10T03:43:32;95910.44;;;15.67;100.00
2397;BME280;1209;48.410;9.054;2023-06-10T03:45:58;95899.00;;;15.80;100.00
2397;BME280;1209;48.410;9.054;2023-06-10T03:48:24;95911.50;;;15.85;100.00
2397;BME280;1209;48.410;9.054;2023-06-10T03:50:49;95908.19;;;15.71;100.00
2397;BME280;1209;48.410;9.054;2023-06-10T03:53:16;95915.97;;;15.84;100.00
2397;BME280;1209;48.410;9.054;2023-06-10T03:55:41;95915.09;;;15.90;100.00
2397;BME280;1209;48.410;9.054;2023-06-10T03:58:07;95911.81;;;15.95;100.00
2397;BME280;1209;48.410;9.054;2023-06-10T04:00:32;95918.91;;;15.94;100.00
2397;BME280;1209;48.410;9.054;2023-06-10T04:03:08;95923.16;;;15.95;100.00
2397;BME280;1209;48.410;9.054;2023-06-10T04:05:34;95919.72;;;15.95;100.00
2397;BME280;1209;48.410;9.054;2023-06-10T04:08:00;95921.91;;;15.98;100.00
2397;BME280;1209;48.410;9.054;2023-06-10T04:10:26;95920.97;;;15.92;100.00
2397;BME280;1209;48.410;9.054;2023-06-10T04:12:52;95917.91;;;15.95;100.00
2397;BME280;1209;48.410;9.054;2023-06-10T04:15:17;95921.34;;;15.96;100.00
2397;BME280;1209;48.410;9.054;2023-06-10T04:17:42;95924.63;;;15.91;100.00
2397;BME280;1209;48.410;9.054;2023-06-10T04:20:08;95926.66;;;15.89;100.00
2397;BME280;1209;48.410;9.054;2023-06-10T04:22:33;95922.81;;;15.67;100.00
2397;BME280;1209;48.410;9.054;2023-06-10T04:24:59;95925.69;;;15.59;100.00
2397;BME280;1209;48.410;9.054;2023-06-10T04:27:24;95928.28;;;15.65;100.00
2397;BME280;1209;48.410;9.054;2023-06-10T04:29:49;95938.81;;;15.90;100.00
2397;BME280;1209;48.410;9.054;2023-06-10T04:32:15;95935.75;;;15.93;100.00
2397;BME280;1209;48.410;9.054;2023-06-10T04:34:40;95934.06;;;15.99;100.00
2397;BME280;1209;48.410;9.054;2023-06-10T04:37:05;95934.28;;;15.97;100.00
2397;BME280;1209;48.410;9.054;2023-06-10T04:39:31;95939.72;;;16.02;100.00
2397;BME280;1209;48.410;9.054;2023-06-10T04:41:57;95943.81;;;15.98;100.00
2397;BME280;1209;48.410;9.054;2023-06-10T04:44:22;95936.75;;;15.92;100.00
2397;BME280;1209;48.410;9.054;2023-06-10T04:46:47;95941.09;;;16.05;100.00
2397;BME280;1209;48.410;9.054;2023-06-10T04:49:13;95940.78;;;16.20;100.00
2397;BME280;1209;48.410;9.054;2023-06-10T04:51:39;95944.81;;;16.22;100.00
2397;BME280;1209;48.410;9.054;2023-06-10T04:54:04;95938.00;;;16.15;100.00
2397;BME280;1209;48.410;9.054;2023-06-10T04:56:30;95944.38;;;16.00;100.00
2397;BME280;1209;48.410;9.054;2023-06-10T04:58:59;95939.28;;;16.05;100.00
2397;BME280;1209;48.410;9.054;2023-06-10T05:01:25;95941.53;;;16.27;100.00
2397;BME280;1209;48.410;9.054;2023-06-10T05:03:50;95949.66;;;16.44;100.00
2397;BME280;1209;48.410;9.054;2023-06-10T05:06:16;95941.00;;;16.55;100.00
2397;BME280;1209;48.410;9.054;2023-06-10T05:08:41;95951.06;;;16.46;100.00
2397;BME280;1209;48.410;9.054;2023-06-10T05:11:06;95949.09;;;16.60;100.00
2397;BME280;1209;48.410;9.054;2023-06-10T05:13:32;95950.56;;;16.56;100.00
2397;BME280;1209;48.410;9.054;2023-06-10T05:15:57;95948.25;;;16.66;100.00
2397;BME280;1209;48.410;9.054;2023-06-10T05:18:23;95950.28;;;16.82;100.00
2397;BME280;1209;48.410;9.054;2023-06-10T05:20:48;95951.81;;;16.90;100.00
2397;BME280;1209;48.410;9.054;2023-06-10T05:23:14;95945.72;;;16.89;100.00
2397;BME280;1209;48.410;9.054;2023-06-10T05:25:39;95947.84;;;16.99;100.00
2397;BME280;1209;48.410;9.054;2023-06-10T05:28:05;95960.97;;;17.06;100.00
2397;BME280;1209;48.410;9.054;2023-06-10T05:30:31;95958.16;;;17.19;100.00
2397;BME280;1209;48.410;9.054;2023-06-10T05:32:56;95961.28;;;17.27;100.00
2397;BME280;1209;48.410;9.054;2023-06-10T05:35:22;95953.06;;;17.36;100.00
2397;BME280;1209;48.410;9.054;2023-06-10T05:37:48;95952.94;;;17.42;100.00
2397;BME280;1209;48.410;9.054;2023-06-10T05:40:13;95955.91;;;17.64;100.00
2397;BME280;1209;48.410;9.054;2023-06-10T05:42:38;95958.59;;;17.76;100.00
2397;BME280;1209;48.410;9.054;2023-06-10T05:45:05;95961.00;;;17.77;100.00
2397;BME280;1209;48.410;9.054;2023-06-10T05:47:31;95968.16;;;17.88;100.00
2397;BME280;1209;48.410;9.054;2023-06-10T05:49:56;95962.63;;;17.90;100.00
2397;BME280;1209;48.410;9.054;2023-06-10T05:52:21;95951.88;;;18.03;100.00
2397;BME280;1209;48.410;9.054;2023-06-10T05:54:48;95965.53;;;18.23;100.00
2397;BME280;1209;48.410;9.054;2023-06-10T05:57:14;95964.50;;;18.24;100.00
2397;BME280;1209;48.410;9.054;2023-06-10T05:59:39;95970.38;;;18.38;100.00
2397;BME280;1209;48.410;9.054;2023-06-10T06:02:05;95960.59;;;18.27;100.00
2397;BME280;1209;48.410;9.054;2023-06-10T06:04:30;95965.22;;;18.55;100.00
2397;BME280;1209;48.410;9.054;2023-06-10T06:06:56;95963.03;;;18.52;100.00
2397;BME280;1209;48.410;9.054;2023-06-10T06:09:21;95962.91;;;18.47;100.00
2397;BME280;1209;48.410;9.054;2023-06-10T06:11:46;95964.88;;;18.63;100.00
2397;BME280;1209;48.410;9.054;2023-06-10T06:14:11;95960.00;;;18.83;100.00
2397;BME280;1209;48.410;9.054;2023-06-10T06:16:37;95967.56;;;19.03;100.00
2397;BME280;1209;48.410;9.054;2023-06-10T06:19:02;95962.91;;;18.70;100.00
2397;BME280;1209;48.410;9.054;2023-06-10T06:21:27;95959.63;;;18.92;100.00
2397;BME280;1209;48.410;9.054;2023-06-10T06:23:53;95958.91;;;19.08;100.00
2397;BME280;1209;48.410;9.054;2023-06-10T06:26:18;95960.94;;;19.17;100.00
2397;BME280;1209;48.410;9.054;2023-06-10T06:28:43;95973.72;;;19.21;100.00
2397;BME280;1209;48.410;9.054;2023-06-10T06:31:09;95961.84;;;19.23;100.00
2397;BME280;1209;48.410;9.054;2023-06-10T06:33:34;95966.84;;;19.36;100.00
2397;BME280;1209;48.410;9.054;2023-06-10T06:35:59;95961.97;;;19.57;100.00
2397;BME280;1209;48.410;9.054;2023-06-10T06:38:26;95965.53;;;19.50;100.00
2397;BME280;1209;48.410;9.054;2023-06-10T06:40:51;95968.06;;;19.57;100.00
2397;BME280;1209;48.410;9.054;2023-06-10T06:43:16;95970.34;;;19.65;100.00
2397;BME280;1209;48.410;9.054;2023-06-10T06:45:43;95965.72;;;19.89;100.00
2397;BME280;1209;48.410;9.054;2023-06-10T06:48:09;95978.66;;;20.02;100.00
2397;BME280;1209;48.410;9.054;2023-06-10T06:50:34;95981.38;;;20.07;100.00
2397;BME280;1209;48.410;9.054;2023-06-10T06:52:59;95976.78;;;20.20;100.00
2397;BME280;1209;48.410;9.054;2023-06-10T06:55:25;95975.44;;;20.34;100.00
2397;BME280;1209;48.410;9.054;2023-06-10T06:57:50;95971.50;;;20.36;100.00
2397;BME280;1209;48.410;9.054;2023-06-10T07:00:15;95973.69;;;20.39;100.00
2397;BME280;1209;48.410;9.054;2023-06-10T07:02:41;95967.16;;;20.47;100.00
2397;BME280;1209;48.410;9.054;2023-06-10T07:05:06;95969.41;;;20.55;100.00
2397;BME280;1209;48.410;9.054;2023-06-10T07:07:32;95970.47;;;20.76;100.00
2397;BME280;1209;48.410;9.054;2023-06-10T07:09:57;95969.63;;;21.14;100.00
2397;BME280;1209;48.410;9.054;2023-06-10T07:12:22;95973.03;;;21.10;100.00
2397;BME280;1209;48.410;9.054;2023-06-10T07:14:50;95971.03;;;21.22;100.00
2397;BME280;1209;48.410;9.054;2023-06-10T07:17:16;95975.22;;;21.18;100.00
2397;BME280;1209;48.410;9.054;2023-06-10T07:19:42;95974.16;;;21.35;100.00
2397;BME280;1209;48.410;9.054;2023-06-10T07:22:07;95971.91;;;21.49;100.00
2397;BME280;1209;48.410;9.054;2023-06-10T07:24:33;95975.50;;;21.65;100.00
2397;BME280;1209;48.410;9.054;2023-06-10T07:26:58;95975.41;;;21.82;100.00
2397;BME280;1209;48.410;9.054;2023-06-10T07:29:24;95973.38;;;21.94;100.00
2397;BME280;1209;48.410;9.054;2023-06-10T07:31:49;95977.25;;;22.08;100.00
2397;BME280;1209;48.410;9.054;2023-06-10T07:34:14;95971.97;;;22.13;100.00
2397;BME280;1209;48.410;9.054;2023-06-10T07:36:40;95977.81;;;22.10;99.75
2397;BME280;1209;48.410;9.054;2023-06-10T07:39:05;95977.50;;;22.07;100.00
2397;BME280;1209;48.410;9.054;2023-06-10T07:41:31;95979.41;;;22.11;100.00
2397;BME280;1209;48.410;9.054;2023-06-10T07:43:56;95978.91;;;22.14;100.00
2397;BME280;1209;48.410;9.054;2023-06-10T07:46:22;95978.13;;;22.19;100.00
2397;BME280;1209;48.410;9.054;2023-06-10T07:48:48;95982.88;;;22.49;100.00
2397;BME280;1209;48.410;9.054;2023-06-10T07:51:15;95971.00;;;22.67;100.00
2397;BME280;1209;48.410;9.054;2023-06-10T07:53:41;95962.63;;;22.85;99.04
2397;BME280;1209;48.410;9.054;2023-06-10T07:56:06;95972.25;;;22.91;96.61
2397;BME280;1209;48.410;9.054;2023-06-10T07:58:31;95964.00;;;22.92;97.62
2397;BME280;1209;48.410;9.054;2023-06-10T08:00:57;95971.50;;;23.06;95.55
2397;BME280;1209;48.410;9.054;2023-06-10T08:03:22;95964.41;;;23.32;95.08
2397;BME280;1209;48.410;9.054;2023-06-10T08:05:48;95959.38;;;23.45;92.06
2397;BME280;1209;48.410;9.054;2023-06-10T08:08:13;95955.38;;;23.43;92.77
2397;BME280;1209;48.410;9.054;2023-06-10T08:10:38;95957.50;;;23.36;96.17
2397;BME280;1209;48.410;9.054;2023-06-10T08:13:03;95955.38;;;23.48;93.77
2397;BME280;1209;48.410;9.054;2023-06-10T08:15:29;95960.22;;;23.61;95.01
2397;BME280;1209;48.410;9.054;2023-06-10T08:17:54;95961.81;;;23.62;92.12
2397;BME280;1209;48.410;9.054;2023-06-10T08:20:19;95954.41;;;23.84;90.71
2397;BME280;1209;48.410;9.054;2023-06-10T08:22:44;95952.53;;;24.10;91.92
2397;BME280;1209;48.410;9.054;2023-06-10T08:25:10;95955.22;;;24.41;87.98
2397;BME280;1209;48.410;9.054;2023-06-10T08:27:35;95951.22;;;24.38;87.67
2397;BME280;1209;48.410;9.054;2023-06-10T08:30:01;95950.13;;;24.60;86.40
2397;BME280;1209;48.410;9.054;2023-06-10T08:32:26;95955.47;;;24.39;86.50
2397;BME280;1209;48.410;9.054;2023-06-10T08:34:51;95960.00;;;24.54;86.51
2397;BME280;1209;48.410;9.054;2023-06-10T08:37:17;95957.06;;;24.61;86.76
2397;BME280;1209;48.410;9.054;2023-06-10T08:39:42;95961.75;;;24.94;85.79
2397;BME280;1209;48.410;9.054;2023-06-10T08:44:42;95959.72;;;24.71;86.16
2397;BME280;1209;48.410;9.054;2023-06-10T08:47:16;95954.13;;;24.52;85.44
2397;BME280;1209;48.410;9.054;2023-06-10T08:49:45;95964.78;;;24.57;85.16
2397;BME280;1209;48.410;9.054;2023-06-10T08:52:14;95959.13;;;24.84;81.43
2397;BME280;1209;48.410;9.054;2023-06-10T08:55:01;95958.53;;;24.97;82.21
2397;BME280;1209;48.410;9.054;2023-06-10T08:57:29;95950.03;;;24.90;81.49
2397;BME280;1209;48.410;9.054;2023-06-10T08:59:56;95956.84;;;25.27;78.91
2397;BME280;1209;48.410;9.054;2023-06-10T09:02:22;95956.16;;;25.60;76.81
2397;BME280;1209;48.410;9.054;2023-06-10T09:04:49;95951.38;;;25.47;79.25
2397;BME280;1209;48.410;9.054;2023-06-10T09:07:15;95950.31;;;25.92;78.00
2397;BME280;1209;48.410;9.054;2023-06-10T09:09:44;95952.19;;;25.92;76.41
2397;BME280;1209;48.410;9.054;2023-06-10T09:12:12;95943.78;;;25.75;76.43
2397;BME280;1209;48.410;9.054;2023-06-10T09:14:38;95948.44;;;25.49;75.74
2397;BME280;1209;48.410;9.054;2023-06-10T09:17:03;95950.44;;;25.77;75.12
2397;BME280;1209;48.410;9.054;2023-06-10T09:19:30;95947.03;;;26.00;76.03
2397;BME280;1209;48.410;9.054;2023-06-10T09:21:55;95949.72;;;25.66;76.76
2397;BME280;1209;48.410;9.054;2023-06-10T09:24:22;95949.56;;;25.87;76.01
2397;BME280;1209;48.410;9.054;2023-06-10T09:26:48;95951.59;;;26.00;74.69
2397;BME280;1209;48.410;9.054;2023-06-10T09:29:14;95942.34;;;25.87;75.28
2397;BME280;1209;48.410;9.054;2023-06-10T09:31:39;95942.81;;;25.55;78.12
2397;BME280;1209;48.410;9.054;2023-06-10T09:34:13;95937.72;;;24.99;79.52
2397;BME280;1209;48.410;9.054;2023-06-10T09:36:39;95936.91;;;25.04;78.97
2397;BME280;1209;48.410;9.054;2023-06-10T09:39:05;95937.78;;;25.43;80.01
2397;BME280;1209;48.410;9.054;2023-06-10T09:41:43;95934.59;;;26.20;76.73
2397;BME280;1209;48.410;9.054;2023-06-10T09:44:21;95937.13;;;26.01;74.20
2397;BME280;1209;48.410;9.054;2023-06-10T09:46:48;95939.28;;;26.86;72.91
2397;BME280;1209;48.410;9.054;2023-06-10T09:49:15;95936.00;;;26.70;71.71
2397;BME280;1209;48.410;9.054;2023-06-10T09:51:59;95933.56;;;26.97;69.80
2397;BME280;1209;48.410;9.054;2023-06-10T09:54:31;95934.63;;;27.39;70.24
2397;BME280;1209;48.410;9.054;2023-06-10T09:56:57;95940.50;;;27.41;69.55
2397;BME280;1209;48.410;9.054;2023-06-10T09:59:30;95940.28;;;27.19;69.73
2397;BME280;1209;48.410;9.054;2023-06-10T10:01:57;95939.13;;;27.25;67.27
2397;BME280;1209;48.410;9.054;2023-06-10T10:04:25;95925.00;;;27.76;65.09
2397;BME280;1209;48.410;9.054;2023-06-10T10:06:51;95936.34;;;27.73;66.05
2397;BME280;1209;48.410;9.054;2023-06-10T10:09:16;95920.44;;;27.57;64.42
2397;BME280;1209;48.410;9.054;2023-06-10T10:11:43;95931.84;;;27.49;64.95
2397;BME280;1209;48.410;9.054;2023-06-10T10:14:09;95926.00;;;27.23;63.03
2397;BME280;1209;48.410;9.054;2023-06-10T10:16:40;95936.09;;;27.88;63.78
2397;BME280;1209;48.410;9.054;2023-06-10T10:19:23;95923.69;;;28.43;59.75
2397;BME280;1209;48.410;9.054;2023-06-10T10:22:10;95929.97;;;28.66;57.63
2397;BME280;1209;48.410;9.054;2023-06-10T10:24:45;95924.19;;;28.73;56.63
2397;BME280;1209;48.410;9.054;2023-06-10T10:27:17;95927.19;;;28.71;55.32
2397;BME280;1209;48.410;9.054;2023-06-10T10:29:46;95926.69;;;28.83;54.04
2397;BME280;1209;48.410;9.054;2023-06-10T10:32:13;95926.28;;;28.48;54.16
2397;BME280;1209;48.410;9.054;2023-06-10T10:34:49;95933.16;;;27.71;54.48
2397;BME280;1209;48.410;9.054;2023-06-10T10:37:17;95930.88;;;27.78;55.76
2397;BME280;1209;48.410;9.054;2023-06-10T10:39:44;95931.94;;;28.14;55.38
2397;BME280;1209;48.410;9.054;2023-06-10T10:42:10;95934.34;;;28.48;52.33
2397;BME280;1209;48.410;9.054;2023-06-10T10:44:37;95929.84;;;28.58;54.29
2397;BME280;1209;48.410;9.054;2023-06-10T10:47:04;95931.22;;;28.88;52.08
2397;BME280;1209;48.410;9.054;2023-06-10T10:49:35;95932.38;;;29.23;51.35
2397;BME280;1209;48.410;9.054;2023-06-10T10:52:01;95926.50;;;29.07;53.25
2397;BME280;1209;48.410;9.054;2023-06-10T10:54:36;95924.00;;;29.24;52.95
2397;BME280;1209;48.410;9.054;2023-06-10T11:02:17;95924.34;;;27.84;54.88
2397;BME280;1209;48.410;9.054;2023-06-10T11:04:47;95925.31;;;27.55;56.77
2397;BME280;1209;48.410;9.054;2023-06-10T11:07:13;95926.97;;;28.54;55.81
2397;BME280;1209;48.410;9.054;2023-06-10T11:10:05;95927.47;;;28.83;53.38
2397;BME280;1209;48.410;9.054;2023-06-10T11:15:27;95926.31;;;27.59;54.53
2397;BME280;1209;48.410;9.054;2023-06-10T11:18:13;95922.53;;;27.23;55.26
2397;BME280;1209;48.410;9.054;2023-06-10T11:31:20;95934.03;;;28.17;56.97
2397;BME280;1209;48.410;9.054;2023-06-10T11:33:55;95922.91;;;29.11;54.55
2397;BME280;1209;48.410;9.054;2023-06-10T11:36:22;95924.69;;;29.43;54.62
2397;BME280;1209;48.410;9.054;2023-06-10T11:38:48;95924.19;;;29.41;53.68
2397;BME280;1209;48.410;9.054;2023-06-10T11:41:14;95920.81;;;28.53;55.09
2397;BME280;1209;48.410;9.054;2023-06-10T11:43:43;95927.91;;;28.31;55.22
2397;BME280;1209;48.410;9.054;2023-06-10T11:46:10;95913.66;;;29.04;55.28
2397;BME280;1209;48.410;9.054;2023-06-10T11:48:35;95912.63;;;28.45;55.26
2397;BME280;1209;48.410;9.054;2023-06-10T11:51:05;95914.97;;;28.33;55.37
2397;BME280;1209;48.410;9.054;2023-06-10T11:53:31;95914.50;;;27.79;56.38
2397;BME280;1209;48.410;9.054;2023-06-10T11:55:56;95911.34;;;28.42;55.66
2397;BME280;1209;48.410;9.054;2023-06-10T11:58:22;95919.19;;;29.49;54.12
2397;BME280;1209;48.410;9.054;2023-06-10T12:00:48;95921.59;;;30.08;52.81
2397;BME280;1209;48.410;9.054;2023-06-10T12:03:14;95920.91;;;30.56;51.63
2397;BME280;1209;48.410;9.054;2023-06-10T12:05:40;95909.19;;;30.92;49.52
2397;BME280;1209;48.410;9.054;2023-06-10T12:08:10;95914.41;;;31.54;50.17
2397;BME280;1209;48.410;9.054;2023-06-10T12:10:40;95916.94;;;31.42;49.54
2397;BME280;1209;48.410;9.054;2023-06-10T12:13:06;95909.72;;;30.72;50.04
2397;BME280;1209;48.410;9.054;2023-06-10T12:15:31;95910.31;;;30.60;50.97
2397;BME280;1209;48.410;9.054;2023-06-10T12:17:57;95912.13;;;29.25;52.26
2397;BME280;1209;48.410;9.054;2023-06-10T12:20:28;95907.56;;;28.57;53.27
2397;BME280;1209;48.410;9.054;2023-06-10T12:22:53;95912.31;;;28.14;54.27
2397;BME280;1209;48.410;9.054;2023-06-10T12:25:27;95913.47;;;28.27;54.22
2397;BME280;1209;48.410;9.054;2023-06-10T12:27:56;95909.06;;;28.17;55.58
2397;BME280;1209;48.410;9.054;2023-06-10T12:30:24;95905.97;;;28.10;54.74
2397;BME280;1209;48.410;9.054;2023-06-10T12:32:51;95901.09;;;28.72;54.56
2397;BME280;1209;48.410;9.054;2023-06-10T12:35:20;95903.63;;;28.96;52.89
2397;BME280;1209;48.410;9.054;2023-06-10T12:38:04;95908.75;;;28.65;53.79
2397;BME280;1209;48.410;9.054;2023-06-10T12:40:33;95904.66;;;28.07;54.80
2397;BME280;1209;48.410;9.054;2023-06-10T12:42:59;95901.34;;;27.97;55.62
2397;BME280;1209;48.410;9.054;2023-06-10T12:45:33;95903.34;;;27.72;55.62
2397;BME280;1209;48.410;9.054;2023-06-10T12:48:11;95906.81;;;27.73;56.69
2397;BME280;1209;48.410;9.054;2023-06-10T12:50:38;95899.28;;;28.07;55.42
2397;BME280;1209;48.410;9.054;2023-06-10T12:53:04;95905.41;;;28.87;54.23
2397;BME280;1209;48.410;9.054;2023-06-10T12:55:29;95910.41;;;29.29;51.79
2397;BME280;1209;48.410;9.054;2023-06-10T12:57:55;95905.13;;;29.74;51.65
2397;BME280;1209;48.410;9.054;2023-06-10T13:00:21;95894.00;;;30.34;50.32
2397;BME280;1209;48.410;9.054;2023-06-10T13:02:48;95904.69;;;30.17;50.58
2397;BME280;1209;48.410;9.054;2023-06-10T13:05:16;95902.22;;;30.29;50.48
2397;BME280;1209;48.410;9.054;2023-06-10T13:07:44;95898.66;;;30.42;49.47
2397;BME280;1209;48.410;9.054;2023-06-10T13:10:09;95902.34;;;30.24;48.90
2397;BME280;1209;48.410;9.054;2023-06-10T13:12:35;95898.66;;;29.97;49.74
2397;BME280;1209;48.410;9.054;2023-06-10T13:15:01;95899.72;;;29.88;49.80
2397;BME280;1209;48.410;9.054;2023-06-10T13:17:27;95903.13;;;30.55;49.46
2397;BME280;1209;48.410;9.054;2023-06-10T13:19:52;95906.34;;;30.04;49.76
2397;BME280;1209;48.410;9.054;2023-06-10T13:22:18;95892.78;;;29.37;49.63
2397;BME280;1209;48.410;9.054;2023-06-10T13:24:45;95893.56;;;29.01;49.62
2397;BME280;1209;48.410;9.054;2023-06-10T13:27:10;95882.75;;;28.33;50.64
2397;BME280;1209;48.410;9.054;2023-06-10T13:29:36;95886.97;;;27.87;51.43
2397;BME280;1209;48.410;9.054;2023-06-10T13:32:01;95877.63;;;28.17;52.33
2397;BME280;1209;48.410;9.054;2023-06-10T13:34:27;95877.69;;;28.45;52.51
2397;BME280;1209;48.410;9.054;2023-06-10T13:36:53;95875.72;;;28.50;52.59